sensor_id;sensor_type;location;lat;lon;timestamp;temperature;humidity
19258;DHT22;9763;48.780;9.212;2023-06-14T00:01:44;21.40;30.90
19258;DHT22;9763;48.780;9.212;2023-06-14T00:05:09;21.30;31.00
19258;DHT22;9763;48.780;9.212;2023-06-14T00:08:34;21.20;30.70
19258;DHT22;9763;48.780;9.212;2023-06-14T00:12:00;21.20;30.90
19258;DHT22;9763;48.780;9.212;2023-06-14T00:15:25;21.10;31.20
19258;DHT22;9763;48.780;9.212;2023-06-14T00:18:49;21.10;31.10
19258;DHT22;9763;48.780;9.212;2023-06-14T00:22:15;21.30;31.40
19258;DHT22;9763;48.780;9.212;2023-06-14T00:25:39;21.10;31.40
19258;DHT22;9763;48.780;9.212;2023-06-14T00:29:03;21.00;31.30
19258;DHT22;9763;48.780;9.212;2023-06-14T00:32:27;21.00;31.60
19258;DHT22;9763;48.780;9.212;2023-06-14T00:35:51;20.90;31.70
19258;DHT22;9763;48.780;9.212;2023-06-14T00:39:15;20.80;31.60
19258;DHT22;9763;48.780;9.212;2023-06-14T00:42:39;20.80;31.80
19258;DHT22;9763;48.780;9.212;2023-06-14T00:46:06;20.70;31.90
19258;DHT22;9763;48.780;9.212;2023-06-14T00:49:31;20.60;32.00
19258;DHT22;9763;48.780;9.212;2023-06-14T00:52:55;20.60;32.00
19258;DHT22;9763;48.780;9.212;2023-06-14T00:56:19;20.80;32.30
19258;DHT22;9763;48.780;9.212;2023-06-14T00:59:47;20.50;32.10
19258;DHT22;9763;48.780;9.212;2023-06-14T01:03:13;20.50;32.40
19258;DHT22;9763;48.780;9.212;2023-06-14T01:06:50;20.80;32.60
19258;DHT22;9763;48.780;9.212;2023-06-14T01:10:31;20.40;32.50
19258;DHT22;9763;48.780;9.212;2023-06-14T01:14:06;20.40;32.50
19258;DHT22;9763;48.780;9.212;2023-06-14T01:17:33;20.30;32.50
19258;DHT22;9763;48.780;9.212;2023-06-14T01:20:58;20.30;32.60
19258;DHT22;9763;48.780;9.212;2023-06-14T01:24:29;20.20;32.70
19258;DHT22;9763;48.780;9.212;2023-06-14T01:27:57;20.20;32.70
19258;DHT22;9763;48.780;9.212;2023-06-14T01:31:23;20.10;32.90
19258;DHT22;9763;48.780;9.212;2023-06-14T01:34:48;20.00;32.90
19258;DHT22;9763;48.780;9.212;2023-06-14T01:38:12;20.00;32.80
19258;DHT22;9763;48.780;9.212;2023-06-14T01:41:40;20.00;33.20
19258;DHT22;9763;48.780;9.212;2023-06-14T01:45:06;19.90;33.40
19258;DHT22;9763;48.780;9.212;2023-06-14T01:48:30;19.90;33.40
19258;DHT22;9763;48.780;9.212;2023-06-14T01:51:55;19.80;33.40
19258;DHT22;9763;48.780;9.212;2023-06-14T01:55:18;19.80;33.50
19258;DHT22;9763;48.780;9.212;2023-06-14T01:58:45;19.70;33.50
19258;DHT22;9763;48.780;9.212;2023-06-14T02:02:10;19.80;33.80
19258;DHT22;9763;48.780;9.212;2023-06-14T02:05:34;19.60;33.70
19258;DHT22;9763;48.780;9.212;2023-06-14T02:09:01;19.60;33.90
19258;DHT22;9763;48.780;9.212;2023-06-14T02:12:25;19.50;34.00
19258;DHT22;9763;48.780;9.212;2023-06-14T02:15:52;20.10;34.70
19258;DHT22;9763;48.780;9.212;2023-06-14T02:19:17;19.40;34.20
19258;DHT22;9763;48.780;9.212;2023-06-14T02:22:41;19.40;34.30
19258;DHT22;9763;48.780;9.212;2023-06-14T02:26:05;19.30;34.30
19258;DHT22;9763;48.780;9.212;2023-06-14T02:29:29;19.30;34.40
19258;DHT22;9763;48.780;9.212;2023-06-14T02:32:54;19.20;34.40
19258;DHT22;9763;48.780;9.212;2023-06-14T02:36:19;19.20;34.60
19258;DHT22;9763;48.780;9.212;2023-06-14T02:39:42;19.40;34.80
19258;DHT22;9763;48.780;9.212;2023-06-14T02:43:06;19.30;34.90
19258;DHT22;9763;48.780;9.212;2023-06-14T02:46:30;19.10;34.70
19258;DHT22;9763;48.780;9.212;2023-06-14T02:49:55;19.10;34.80
19258;DHT22;9763;48.780;9.212;2023-06-14T02:53:18;19.00;35.00
19258;DHT22;9763;48.780;9.212;2023-06-14T02:56:42;19.00;35.00
19258;DHT22;9763;48.780;9.212;2023-06-14T03:00:07;19.10;35.20
19258;DHT22;9763;48.780;9.212;2023-06-14T03:03:37;18.90;35.30
19258;DHT22;9763;48.780;9.212;2023-06-14T03:07:02;18.90;35.30
19258;DHT22;9763;48.780;9.212;2023-06-14T03:10:33;18.90;35.50
19258;DHT22;9763;48.780;9.212;2023-06-14T03:13:58;18.80;35.30
19258;DHT22;9763;48.780;9.212;2023-06-14T03:17:22;18.80;35.70
19258;DHT22;9763;48.780;9.212;2023-06-14T03:20:47;18.70;35.70
19258;DHT22;9763;48.780;9.212;2023-06-14T03:24:12;18.60;35.70
19258;DHT22;9763;48.780;9.212;2023-06-14T03:27:38;18.60;36.10
19258;DHT22;9763;48.780;9.212;2023-06-14T03:31:02;18.60;36.20
19258;DHT22;9763;48.780;9.212;2023-06-14T03:34:27;18.50;36.20
19258;DHT22;9763;48.780;9.212;2023-06-14T03:37:52;18.50;36.40
19258;DHT22;9763;48.780;9.212;2023-06-14T03:41:18;18.60;36.60
19258;DHT22;9763;48.780;9.212;2023-06-14T03:44:44;18.50;36.80
19258;DHT22;9763;48.780;9.212;2023-06-14T03:48:09;18.50;36.90
19258;DHT22;9763;48.780;9.212;2023-06-14T03:51:34;18.50;37.00
19258;DHT22;9763;48.780;9.212;2023-06-14T03:54:58;18.50;37.10
19258;DHT22;9763;48.780;9.212;2023-06-14T03:58:28;18.60;37.30
19258;DHT22;9763;48.780;9.212;2023-06-14T04:01:53;18.70;37.80
19258;DHT22;9763;48.780;9.212;2023-06-14T04:05:17;18.80;38.20
19258;DHT22;9763;48.780;9.212;2023-06-14T04:08:44;17.30;37.20
19258;DHT22;9763;48.780;9.212;2023-06-14T04:12:09;19.20;39.00
19258;DHT22;9763;48.780;9.212;2023-06-14T04:15:35;19.40;39.10
19258;DHT22;9763;48.780;9.212;2023-06-14T04:19:00;19.70;39.30
19258;DHT22;9763;48.780;9.212;2023-06-14T04:22:24;20.00;39.50
19258;DHT22;9763;48.780;9.212;2023-06-14T04:25:52;20.30;39.50
19258;DHT22;9763;48.780;9.212;2023-06-14T04:29:17;20.60;39.40
19258;DHT22;9763;48.780;9.212;2023-06-14T04:32:50;20.90;39.60
19258;DHT22;9763;48.780;9.212;2023-06-14T04:36:16;21.30;39.60
19258;DHT22;9763;48.780;9.212;2023-06-14T04:39:42;21.70;39.60
19258;DHT22;9763;48.780;9.212;2023-06-14T04:43:07;22.10;39.50
19258;DHT22;9763;48.780;9.212;2023-06-14T04:46:31;22.60;39.40
19258;DHT22;9763;48.780;9.212;2023-06-14T04:49:58;22.80;39.30
19258;DHT22;9763;48.780;9.212;2023-06-14T04:53:25;23.20;39.20
19258;DHT22;9763;48.780;9.212;2023-06-14T04:56:53;23.70;39.50
19258;DHT22;9763;48.780;9.212;2023-06-14T05:00:20;24.20;39.60
19258;DHT22;9763;48.780;9.212;2023-06-14T05:03:45;24.70;39.40
19258;DHT22;9763;48.780;9.212;2023-06-14T05:07:12;25.10;39.20
19258;DHT22;9763;48.780;9.212;2023-06-14T05:10:37;25.60;38.90
19258;DHT22;9763;48.780;9.212;2023-06-14T05:14:01;26.00;38.60
19258;DHT22;9763;48.780;9.212;2023-06-14T05:17:24;26.50;38.10
19258;DHT22;9763;48.780;9.212;2023-06-14T05:20:50;26.90;37.30
19258;DHT22;9763;48.780;9.212;2023-06-14T05:24:15;27.30;36.60
19258;DHT22;9763;48.780;9.212;2023-06-14T05:27:40;27.30;36.00
19258;DHT22;9763;48.780;9.212;2023-06-14T05:31:04;27.50;36.20
19258;DHT22;9763;48.780;9.212;2023-06-14T05:34:27;27.60;36.10
19258;DHT22;9763;48.780;9.212;2023-06-14T05:37:51;27.90;36.40
19258;DHT22;9763;48.780;9.212;2023-06-14T05:41:17;28.20;36.40
19258;DHT22;9763;48.780;9.212;2023-06-14T05:44:42;28.50;36.10
19258;DHT22;9763;48.780;9.212;2023-06-14T05:48:06;29.00;36.10
19258;DHT22;9763;48.780;9.212;2023-06-14T05:51:30;29.40;35.70
19258;DHT22;9763;48.780;9.212;2023-06-14T05:54:53;29.80;35.40
19258;DHT22;9763;48.780;9.212;2023-06-14T05:58:18;30.20;34.60
19258;DHT22;9763;48.780;9.212;2023-06-14T06:01:42;30.50;33.80
19258;DHT22;9763;48.780;9.212;2023-06-14T06:05:06;30.80;33.40
19258;DHT22;9763;48.780;9.212;2023-06-14T06:08:30;31.00;33.50
19258;DHT22;9763;48.780;9.212;2023-06-14T06:11:55;31.20;33.40
19258;DHT22;9763;48.780;9.212;2023-06-14T06:15:20;31.50;33.20
19258;DHT22;9763;48.780;9.212;2023-06-14T06:18:44;31.90;32.90
19258;DHT22;9763;48.780;9.212;2023-06-14T06:22:07;32.30;32.60
19258;DHT22;9763;48.780;9.212;2023-06-14T06:25:31;32.70;32.30
19258;DHT22;9763;48.780;9.212;2023-06-14T06:28:55;33.10;32.00
19258;DHT22;9763;48.780;9.212;2023-06-14T06:32:21;33.40;31.50
19258;DHT22;9763;48.780;9.212;2023-06-14T06:35:45;32.60;30.30
19258;DHT22;9763;48.780;9.212;2023-06-14T06:39:08;34.10;30.50
19258;DHT22;9763;48.780;9.212;2023-06-14T06:42:32;34.30;30.00
19258;DHT22;9763;48.780;9.212;2023-06-14T06:45:58;34.50;29.70
19258;DHT22;9763;48.780;9.212;2023-06-14T06:49:24;34.70;29.30
19258;DHT22;9763;48.780;9.212;2023-06-14T06:52:47;34.80;29.20
19258;DHT22;9763;48.780;9.212;2023-06-14T06:56:11;34.90;29.00
19258;DHT22;9763;48.780;9.212;2023-06-14T06:59:35;35.10;28.90
19258;DHT22;9763;48.780;9.212;2023-06-14T07:02:59;35.30;28.80
19258;DHT22;9763;48.780;9.212;2023-06-14T07:06:25;35.50;28.50
19258;DHT22;9763;48.780;9.212;2023-06-14T07:09:49;35.70;28.10
19258;DHT22;9763;48.780;9.212;2023-06-14T07:13:13;35.90;28.00
19258;DHT22;9763;48.780;9.212;2023-06-14T07:16:37;36.00;27.70
19258;DHT22;9763;48.780;9.212;2023-06-14T07:20:02;36.20;27.40
19258;DHT22;9763;48.780;9.212;2023-06-14T07:23:32;36.40;27.30
19258;DHT22;9763;48.780;9.212;2023-06-14T07:26:55;36.50;26.80
19258;DHT22;9763;48.780;9.212;2023-06-14T07:30:19;36.70;26.90
19258;DHT22;9763;48.780;9.212;2023-06-14T07:33:43;36.80;26.80
19258;DHT22;9763;48.780;9.212;2023-06-14T07:37:07;36.90;26.90
19258;DHT22;9763;48.780;9.212;2023-06-14T07:40:32;37.10;26.60
19258;DHT22;9763;48.780;9.212;2023-06-14T07:43:56;37.30;26.40
19258;DHT22;9763;48.780;9.212;2023-06-14T07:47:20;37.40;26.30
19258;DHT22;9763;48.780;9.212;2023-06-14T07:50:44;37.60;26.10
19258;DHT22;9763;48.780;9.212;2023-06-14T07:54:08;37.70;26.00
19258;DHT22;9763;48.780;9.212;2023-06-14T07:57:33;37.90;26.00
19258;DHT22;9763;48.780;9.212;2023-06-14T08:00:57;38.00;25.50
19258;DHT22;9763;48.780;9.212;2023-06-14T08:04:21;38.10;25.50
19258;DHT22;9763;48.780;9.212;2023-06-14T08:07:46;38.40;25.50
19258;DHT22;9763;48.780;9.212;2023-06-14T08:11:09;38.40;25.40
19258;DHT22;9763;48.780;9.212;2023-06-14T08:14:34;38.50;24.40
19258;DHT22;9763;48.780;9.212;2023-06-14T08:17:58;38.40;24.50
19258;DHT22;9763;48.780;9.212;2023-06-14T08:21:23;38.20;24.60
19258;DHT22;9763;48.780;9.212;2023-06-14T08:24:51;38.20;24.90
19258;DHT22;9763;48.780;9.212;2023-06-14T08:28:16;38.20;25.00
19258;DHT22;9763;48.780;9.212;2023-06-14T08:31:41;38.40;25.10
19258;DHT22;9763;48.780;9.212;2023-06-14T08:35:05;38.60;24.80
19258;DHT22;9763;48.780;9.212;2023-06-14T08:38:30;38.60;24.50
19258;DHT22;9763;48.780;9.212;2023-06-14T08:41:55;38.70;24.50
19258;DHT22;9763;48.780;9.212;2023-06-14T08:45:21;38.80;24.70
19258;DHT22;9763;48.780;9.212;2023-06-14T08:48:51;38.90;24.60
19258;DHT22;9763;48.780;9.212;2023-06-14T08:52:16;38.90;24.40
19258;DHT22;9763;48.780;9.212;2023-06-14T08:55:45;39.10;24.40
19258;DHT22;9763;48.780;9.212;2023-06-14T08:59:10;39.20;24.20
19258;DHT22;9763;48.780;9.212;2023-06-14T09:02:34;39.30;24.00
19258;DHT22;9763;48.780;9.212;2023-06-14T09:05:59;39.40;23.90
19258;DHT22;9763;48.780;9.212;2023-06-14T09:09:25;39.40;23.70
19258;DHT22;9763;48.780;9.212;2023-06-14T09:12:49;39.40;23.40
19258;DHT22;9763;48.780;9.212;2023-06-14T09:16:12;39.30;23.60
19258;DHT22;9763;48.780;9.212;2023-06-14T09:19:36;39.30;23.60
19258;DHT22;9763;48.780;9.212;2023-06-14T09:23:02;39.40;23.70
19258;DHT22;9763;48.780;9.212;2023-06-14T09:26:30;39.50;23.60
19258;DHT22;9763;48.780;9.212;2023-06-14T09:29:53;39.60;23.70
19258;DHT22;9763;48.780;9.212;2023-06-14T09:33:17;39.70;23.40
19258;DHT22;9763;48.780;9.212;2023-06-14T09:36:41;39.70;23.30
19258;DHT22;9763;48.780;9.212;2023-06-14T09:40:07;39.70;23.10
19258;DHT22;9763;48.780;9.212;2023-06-14T09:43:33;39.70;23.20
19258;DHT22;9763;48.780;9.212;2023-06-14T09:46:57;39.70;23.10
19258;DHT22;9763;48.780;9.212;2023-06-14T09:50:21;39.70;22.80
19258;DHT22;9763;48.780;9.212;2023-06-14T09:53:46;39.70;22.60
19258;DHT22;9763;48.780;9.212;2023-06-14T09:57:14;39.70;22.60
19258;DHT22;9763;48.780;9.212;2023-06-14T10:00:39;39.60;22.70
19258;DHT22;9763;48.780;9.212;2023-06-14T10:04:06;39.70;22.70
19258;DHT22;9763;48.780;9.212;2023-06-14T10:07:38;39.70;22.50
19258;DHT22;9763;48.780;9.212;2023-06-14T10:11:06;39.80;22.50
19258;DHT22;9763;48.780;9.212;2023-06-14T10:14:31;39.80;22.30
19258;DHT22;9763;48.780;9.212;2023-06-14T10:17:59;39.90;21.90
19258;DHT22;9763;48.780;9.212;2023-06-14T10:21:36;39.90;21.60
19258;DHT22;9763;48.780;9.212;2023-06-14T10:25:07;39.90;21.30
19258;DHT22;9763;48.780;9.212;2023-06-14T10:28:37;39.90;21.00
19258;DHT22;9763;48.780;9.212;2023-06-14T10:32:03;39.70;21.30
19258;DHT22;9763;48.780;9.212;2023-06-14T10:35:28;39.50;21.20
19258;DHT22;9763;48.780;9.212;2023-06-14T10:39:04;39.50;21.50
19258;DHT22;9763;48.780;9.212;2023-06-14T10:42:32;39.40;21.00
19258;DHT22;9763;48.780;9.212;2023-06-14T10:46:16;39.30;21.10
19258;DHT22;9763;48.780;9.212;2023-06-14T10:49:54;39.00;21.10
19258;DHT22;9763;48.780;9.212;2023-06-14T10:53:22;38.60;20.90
19258;DHT22;9763;48.780;9.212;2023-06-14T10:56:46;38.10;20.70
19258;DHT22;9763;48.780;9.212;2023-06-14T11:00:13;37.50;20.70
19258;DHT22;9763;48.780;9.212;2023-06-14T11:03:51;36.90;21.00
19258;DHT22;9763;48.780;9.212;2023-06-14T11:07:33;36.30;21.00
19258;DHT22;9763;48.780;9.212;2023-06-14T11:11:09;35.60;21.20
19258;DHT22;9763;48.780;9.212;2023-06-14T11:14:32;35.10;21.20
19258;DHT22;9763;48.780;9.212;2023-06-14T11:17:57;34.60;21.60
19258;DHT22;9763;48.780;9.212;2023-06-14T11:21:24;34.30;22.60
19258;DHT22;9763;48.780;9.212;2023-06-14T11:24:57;34.20;22.80
19258;DHT22;9763;48.780;9.212;2023-06-14T11:28:25;34.20;23.20
19258;DHT22;9763;48.780;9.212;2023-06-14T11:31:59;34.40;23.40
19258;DHT22;9763;48.780;9.212;2023-06-14T11:35:23;34.60;23.70
19258;DHT22;9763;48.780;9.212;2023-06-14T11:38:48;34.90;23.40
19258;DHT22;9763;48.780;9.212;2023-06-14T11:42:15;35.10;23.50
19258;DHT22;9763;48.780;9.212;2023-06-14T11:45:39;35.40;23.60
19258;DHT22;9763;48.780;9.212;2023-06-14T11:49:03;35.70;23.50
19258;DHT22;9763;48.780;9.212;2023-06-14T11:52:29;36.00;23.60
19258;DHT22;9763;48.780;9.212;2023-06-14T11:55:53;36.30;23.20
19258;DHT22;9763;48.780;9.212;2023-06-14T11:59:20;36.60;22.80
19258;DHT22;9763;48.780;9.212;2023-06-14T12:02:52;36.70;22.20
19258;DHT22;9763;48.780;9.212;2023-06-14T12:06:26;36.80;22.20
19258;DHT22;9763;48.780;9.212;2023-06-14T12:10:05;36.80;22.20
19258;DHT22;9763;48.780;9.212;2023-06-14T12:13:31;36.90;22.30
19258;DHT22;9763;48.780;9.212;2023-06-14T12:17:04;36.90;22.20
19258;DHT22;9763;48.780;9.212;2023-06-14T12:20:30;37.00;22.10
19258;DHT22;9763;48.780;9.212;2023-06-14T12:23:54;37.00;22.30
19258;DHT22;9763;48.780;9.212;2023-06-14T12:27:21;37.00;22.20
19258;DHT22;9763;48.780;9.212;2023-06-14T12:30:46;37.10;22.10
19258;DHT22;9763;48.780;9.212;2023-06-14T12:34:11;37.10;22.10
19258;DHT22;9763;48.780;9.212;2023-06-14T12:37:35;37.20;21.90
19258;DHT22;9763;48.780;9.212;2023-06-14T12:40:59;37.20;21.90
19258;DHT22;9763;48.780;9.212;2023-06-14T12:44:24;37.20;21.80
19258;DHT22;9763;48.780;9.212;2023-06-14T12:47:47;37.20;21.60
19258;DHT22;9763;48.780;9.212;2023-06-14T12:51:13;37.10;21.60
19258;DHT22;9763;48.780;9.212;2023-06-14T12:54:37;37.00;21.60
19258;DHT22;9763;48.780;9.212;2023-06-14T12:58:02;36.90;21.60
19258;DHT22;9763;48.780;9.212;2023-06-14T13:01:26;36.80;21.60
19258;DHT22;9763;48.780;9.212;2023-06-14T13:04:50;36.70;21.70
19258;DHT22;9763;48.780;9.212;2023-06-14T13:08:18;36.60;21.50
19258;DHT22;9763;48.780;9.212;2023-06-14T13:11:46;36.50;21.60
19258;DHT22;9763;48.780;9.212;2023-06-14T13:15:10;36.50;21.60
19258;DHT22;9763;48.780;9.212;2023-06-14T13:18:34;36.50;21.70
19258;DHT22;9763;48.780;9.212;2023-06-14T13:21:58;36.40;21.80
19258;DHT22;9763;48.780;9.212;2023-06-14T13:25:23;36.30;21.90
19258;DHT22;9763;48.780;9.212;2023-06-14T13:28:47;36.30;21.90
19258;DHT22;9763;48.780;9.212;2023-06-14T13:32:11;36.30;22.00
19258;DHT22;9763;48.780;9.212;2023-06-14T13:35:34;36.20;21.90
19258;DHT22;9763;48.780;9.212;2023-06-14T13:38:58;36.10;21.90
19258;DHT22;9763;48.780;9.212;2023-06-14T13:42:24;35.90;21.80
19258;DHT22;9763;48.780;9.212;2023-06-14T13:45:48;35.80;21.80
19258;DHT22;9763;48.780;9.212;2023-06-14T13:49:29;35.50;21.80
19258;DHT22;9763;48.780;9.212;2023-06-14T13:52:56;35.30;21.70
19258;DHT22;9763;48.780;9.212;2023-06-14T13:56:37;35.00;21.80
19258;DHT22;9763;48.780;9.212;2023-06-14T14:00:03;34.80;21.80
19258;DHT22;9763;48.780;9.212;2023-06-14T14:03:45;34.50;21.90
19258;DHT22;9763;48.780;9.212;2023-06-14T14:07:09;34.20;22.00
19258;DHT22;9763;48.780;9.212;2023-06-14T14:10:50;33.70;22.20
19258;DHT22;9763;48.780;9.212;2023-06-14T14:14:15;33.40;22.40
19258;DHT22;9763;48.780;9.212;2023-06-14T14:17:57;33.20;22.70
19258;DHT22;9763;48.780;9.212;2023-06-14T14:21:21;33.10;22.80
19258;DHT22;9763;48.780;9.212;2023-06-14T14:24:45;33.10;22.80
19258;DHT22;9763;48.780;9.212;2023-06-14T14:28:09;33.00;22.80
19258;DHT22;9763;48.780;9.212;2023-06-14T14:31:48;32.90;23.00
19258;DHT22;9763;48.780;9.212;2023-06-14T14:35:14;32.70;23.00
19258;DHT22;9763;48.780;9.212;2023-06-14T14:38:37;32.50;23.00
19258;DHT22;9763;48.780;9.212;2023-06-14T14:42:01;32.40;23.00
19258;DHT22;9763;48.780;9.212;2023-06-14T14:45:25;32.20;23.10
19258;DHT22;9763;48.780;9.212;2023-06-14T14:48:48;32.10;23.20
19258;DHT22;9763;48.780;9.212;2023-06-14T14:52:14;31.90;23.30
19258;DHT22;9763;48.780;9.212;2023-06-14T14:55:45;31.80;23.50
19258;DHT22;9763;48.780;9.212;2023-06-14T14:59:09;33.20;24.20
19258;DHT22;9763;48.780;9.212;2023-06-14T15:02:33;31.80;23.50
19258;DHT22;9763;48.780;9.212;2023-06-14T15:05:56;31.70;23.50
19258;DHT22;9763;48.780;9.212;2023-06-14T15:09:22;31.70;23.60
19258;DHT22;9763;48.780;9.212;2023-06-14T15:12:46;31.60;23.60
19258;DHT22;9763;48.780;9.212;2023-06-14T15:16:10;31.60;24.30
19258;DHT22;9763;48.780;9.212;2023-06-14T15:19:33;31.50;23.90
19258;DHT22;9763;48.780;9.212;2023-06-14T15:22:58;31.50;24.00
19258;DHT22;9763;48.780;9.212;2023-06-14T15:26:23;31.50;24.00
19258;DHT22;9763;48.780;9.212;2023-06-14T15:29:47;31.50;24.10
19258;DHT22;9763;48.780;9.212;2023-06-14T15:33:13;31.40;24.00
19258;DHT22;9763;48.780;9.212;2023-06-14T15:36:36;31.40;24.10
19258;DHT22;9763;48.780;9.212;2023-06-14T15:40:00;31.40;24.10
19258;DHT22;9763;48.780;9.212;2023-06-14T15:43:25;31.30;24.20
19258;DHT22;9763;48.780;9.212;2023-06-14T15:46:49;31.20;24.40
19258;DHT22;9763;48.780;9.212;2023-06-14T15:50:13;31.10;24.30
19258;DHT22;9763;48.780;9.212;2023-06-14T15:53:37;31.00;24.40
19258;DHT22;9763;48.780;9.212;2023-06-14T15:57:01;30.90;24.40
19258;DHT22;9763;48.780;9.212;2023-06-14T16:00:26;30.80;24.60
19258;DHT22;9763;48.780;9.212;2023-06-14T16:03:50;30.70;24.60
19258;DHT22;9763;48.780;9.212;2023-06-14T16:07:14;30.60;24.70
19258;DHT22;9763;48.780;9.212;2023-06-14T16:10:38;30.50;24.60
19258;DHT22;9763;48.780;9.212;2023-06-14T16:14:02;30.50;24.70
19258;DHT22;9763;48.780;9.212;2023-06-14T16:17:27;30.50;24.80
19258;DHT22;9763;48.780;9.212;2023-06-14T16:20:51;30.40;25.30
19258;DHT22;9763;48.780;9.212;2023-06-14T16:24:17;30.40;24.80
19258;DHT22;9763;48.780;9.212;2023-06-14T16:27:41;30.30;25.00
19258;DHT22;9763;48.780;9.212;2023-06-14T16:31:05;30.30;25.00
19258;DHT22;9763;48.780;9.212;2023-06-14T16:34:30;30.20;25.10
19258;DHT22;9763;48.780;9.212;2023-06-14T16:37:55;30.20;25.20
19258;DHT22;9763;48.780;9.212;2023-06-14T16:41:18;30.20;25.20
19258;DHT22;9763;48.780;9.212;2023-06-14T16:44:42;30.10;25.30
19258;DHT22;9763;48.780;9.212;2023-06-14T16:48:06;30.10;25.30
19258;DHT22;9763;48.780;9.212;2023-06-14T16:51:31;30.10;25.30
19258;DHT22;9763;48.780;9.212;2023-06-14T16:54:55;30.10;25.50
19258;DHT22;9763;48.780;9.212;2023-06-14T16:58:18;30.10;25.50
19258;DHT22;9763;48.780;9.212;2023-06-14T17:01:42;30.10;25.50
19258;DHT22;9763;48.780;9.212;2023-06-14T17:05:07;30.00;25.40
19258;DHT22;9763;48.780;9.212;2023-06-14T17:08:32;29.90;25.40
19258;DHT22;9763;48.780;9.212;2023-06-14T17:11:56;29.80;25.30
19258;DHT22;9763;48.780;9.212;2023-06-14T17:15:19;29.70;25.30
19258;DHT22;9763;48.780;9.212;2023-06-14T17:18:43;29.60;25.90
19258;DHT22;9763;48.780;9.212;2023-06-14T17:22:07;29.50;25.40
19258;DHT22;9763;48.780;9.212;2023-06-14T17:25:32;29.40;25.40
19258;DHT22;9763;48.780;9.212;2023-06-14T17:28:56;29.40;25.60
19258;DHT22;9763;48.780;9.212;2023-06-14T17:32:19;29.30;25.80
19258;DHT22;9763;48.780;9.212;2023-06-14T17:35:43;29.30;25.90
19258;DHT22;9763;48.780;9.212;2023-06-14T17:39:07;29.20;26.00
19258;DHT22;9763;48.780;9.212;2023-06-14T17:42:32;29.20;26.10
19258;DHT22;9763;48.780;9.212;2023-06-14T17:45:56;29.10;26.20
19258;DHT22;9763;48.780;9.212;2023-06-14T17:49:20;29.10;26.20
19258;DHT22;9763;48.780;9.212;2023-06-14T17:52:48;29.00;26.20
19258;DHT22;9763;48.780;9.212;2023-06-14T17:56:11;29.00;26.40
19258;DHT22;9763;48.780;9.212;2023-06-14T17:59:36;29.00;26.40
19258;DHT22;9763;48.780;9.212;2023-06-14T18:03:00;29.00;26.50
19258;DHT22;9763;48.780;9.212;2023-06-14T18:06:24;28.90;26.40
19258;DHT22;9763;48.780;9.212;2023-06-14T18:09:48;28.80;26.40
19258;DHT22;9763;48.780;9.212;2023-06-14T18:13:12;28.70;26.50
19258;DHT22;9763;48.780;9.212;2023-06-14T18:16:37;28.70;26.60
19258;DHT22;9763;48.780;9.212;2023-06-14T18:20:03;28.60;26.80
19258;DHT22;9763;48.780;9.212;2023-06-14T18:23:28;28.50;26.90
19258;DHT22;9763;48.780;9.212;2023-06-14T18:26:51;28.40;26.90
19258;DHT22;9763;48.780;9.212;2023-06-14T18:30:17;28.30;27.00
19258;DHT22;9763;48.780;9.212;2023-06-14T18:33:43;28.20;27.10
19258;DHT22;9763;48.780;9.212;2023-06-14T18:37:07;28.20;27.20
19258;DHT22;9763;48.780;9.212;2023-06-14T18:40:30;28.00;27.20
19258;DHT22;9763;48.780;9.212;2023-06-14T18:43:54;27.90;27.30
19258;DHT22;9763;48.780;9.212;2023-06-14T18:47:18;27.80;27.40
19258;DHT22;9763;48.780;9.212;2023-06-14T18:50:43;27.70;27.50
19258;DHT22;9763;48.780;9.212;2023-06-14T18:54:06;27.60;27.60
19258;DHT22;9763;48.780;9.212;2023-06-14T18:57:30;27.30;27.50
19258;DHT22;9763;48.780;9.212;2023-06-14T19:00:54;27.50;27.70
19258;DHT22;9763;48.780;9.212;2023-06-14T19:04:18;27.40;27.80
19258;DHT22;9763;48.780;9.212;2023-06-14T19:07:43;27.30;27.90
19258;DHT22;9763;48.780;9.212;2023-06-14T19:11:06;27.20;28.00
19258;DHT22;9763;48.780;9.212;2023-06-14T19:14:32;27.10;28.00
19258;DHT22;9763;48.780;9.212;2023-06-14T19:17:55;27.10;28.10
19258;DHT22;9763;48.780;9.212;2023-06-14T19:21:19;27.00;28.20
19258;DHT22;9763;48.780;9.212;2023-06-14T19:24:44;27.00;28.30
19258;DHT22;9763;48.780;9.212;2023-06-14T19:28:08;26.90;28.40
19258;DHT22;9763;48.780;9.212;2023-06-14T19:31:32;26.80;28.50
19258;DHT22;9763;48.780;9.212;2023-06-14T19:34:55;26.80;28.50
19258;DHT22;9763;48.780;9.212;2023-06-14T19:38:22;26.70;28.60
19258;DHT22;9763;48.780;9.212;2023-06-14T19:41:47;26.60;28.80
19258;DHT22;9763;48.780;9.212;2023-06-14T19:45:11;26.50;29.00
19258;DHT22;9763;48.780;9.212;2023-06-14T19:48:36;26.50;29.00
19258;DHT22;9763;48.780;9.212;2023-06-14T19:52:00;26.30;29.10
19258;DHT22;9763;48.780;9.212;2023-06-14T19:55:25;26.30;29.30
19258;DHT22;9763;48.780;9.212;2023-06-14T19:58:50;26.10;29.50
19258;DHT22;9763;48.780;9.212;2023-06-14T20:02:14;26.10;29.60
19258;DHT22;9763;48.780;9.212;2023-06-14T20:05:40;25.90;29.60
19258;DHT22;9763;48.780;9.212;2023-06-14T20:09:05;25.80;29.90
19258;DHT22;9763;48.780;9.212;2023-06-14T20:12:33;25.80;30.10
19258;DHT22;9763;48.780;9.212;2023-06-14T20:15:58;25.50;30.10
19258;DHT22;9763;48.780;9.212;2023-06-14T20:19:22;25.40;30.30
19258;DHT22;9763;48.780;9.212;2023-06-14T20:22:46;25.30;30.50
19258;DHT22;9763;48.780;9.212;2023-06-14T20:26:10;25.20;30.70
19258;DHT22;9763;48.780;9.212;2023-06-14T20:29:33;25.00;30.80
19258;DHT22;9763;48.780;9.212;2023-06-14T20:32:59;25.00;31.00
19258;DHT22;9763;48.780;9.212;2023-06-14T20:36:23;25.30;31.60
19258;DHT22;9763;48.780;9.212;2023-06-14T20:39:47;24.80;31.30
19258;DHT22;9763;48.780;9.212;2023-06-14T20:43:11;24.80;31.50
19258;DHT22;9763;48.780;9.212;2023-06-14T20:46:35;24.80;31.70
19258;DHT22;9763;48.780;9.212;2023-06-14T20:50:00;25.00;32.00
19258;DHT22;9763;48.780;9.212;2023-06-14T20:53:24;24.60;31.90
19258;DHT22;9763;48.780;9.212;2023-06-14T20:56:48;24.50;32.10
19258;DHT22;9763;48.780;9.212;2023-06-14T21:00:13;24.50;32.10
19258;DHT22;9763;48.780;9.212;2023-06-14T21:03:38;24.40;32.20
19258;DHT22;9763;48.780;9.212;2023-06-14T21:07:04;24.60;32.30
19258;DHT22;9763;48.780;9.212;2023-06-14T21:10:28;24.30;32.60
19258;DHT22;9763;48.780;9.212;2023-06-14T21:13:53;24.30;32.40
19258;DHT22;9763;48.780;9.212;2023-06-14T21:17:16;24.30;32.70
19258;DHT22;9763;48.780;9.212;2023-06-14T21:20:40;24.20;32.60
19258;DHT22;9763;48.780;9.212;2023-06-14T21:24:06;24.20;32.90
19258;DHT22;9763;48.780;9.212;2023-06-14T21:27:29;24.10;33.10
19258;DHT22;9763;48.780;9.212;2023-06-14T21:30:53;24.10;32.80
19258;DHT22;9763;48.780;9.212;2023-06-14T21:34:17;24.00;33.00
19258;DHT22;9763;48.780;9.212;2023-06-14T21:37:41;24.00;33.20
19258;DHT22;9763;48.780;9.212;2023-06-14T21:41:06;23.90;33.30
19258;DHT22;9763;48.780;9.212;2023-06-14T21:44:29;23.80;33.40
19258;DHT22;9763;48.780;9.212;2023-06-14T21:47:53;23.70;33.40
19258;DHT22;9763;48.780;9.212;2023-06-14T21:51:17;23.70;33.50
19258;DHT22;9763;48.780;9.212;2023-06-14T21:54:42;23.60;33.70
19258;DHT22;9763;48.780;9.212;2023-06-14T21:58:07;23.60;33.90